Clay Hill, Texas
Current Conditions -  °F | °C
As of 6:15 AM on Monday 26 Jan 2015 (Local Time) from KLXY Reporting Station
Clear Clear  
Wind Chill: 38°   Ceiling: Unl
Heat Index: 41°   Visibility: 10mi
Dew Point: 28°   Wind: 5mph
Humidity: 61%   Direction: 320°NW
Pressure: 30.2"   Gusts: NA
Location:  31.6463°N, 96.2786°W
Report Text: KLXY 261215Z AUTO 32004KT 10SM CLR 05/M02 A3020 RMK AO2 T00481022
Loading
Personal Weather Stations






























Interactive Weather Map New forecast layout! Learn more

10-Day Weather Forecast

Advertisements
Track Severe Weather on mobile